sensor_id;sensor_type;location;lat;lon;timestamp;P1;durP1;ratioP1;P2;durP2;ratioP2
23578;SDS011;11967;50.852;4.400;2022-08-24T00:00:51;6.55;;;2.80;;
23578;SDS011;11967;50.852;4.400;2022-08-24T00:03:17;5.20;;;2.97;;
23578;SDS011;11967;50.852;4.400;2022-08-24T00:05:43;8.93;;;3.08;;
23578;SDS011;11967;50.852;4.400;2022-08-24T00:08:09;6.53;;;2.92;;
23578;SDS011;11967;50.852;4.400;2022-08-24T00:10:35;6.88;;;2.67;;
23578;SDS011;11967;50.852;4.400;2022-08-24T00:13:00;8.15;;;3.03;;
23578;SDS011;11967;50.852;4.400;2022-08-24T00:15:26;5.18;;;3.10;;
23578;SDS011;11967;50.852;4.400;2022-08-24T00:17:52;4.28;;;2.83;;
23578;SDS011;11967;50.852;4.400;2022-08-24T00:20:17;7.82;;;3.08;;
23578;SDS011;11967;50.852;4.400;2022-08-24T00:22:43;8.23;;;3.30;;
23578;SDS011;11967;50.852;4.400;2022-08-24T00:25:10;6.25;;;3.03;;
23578;SDS011;11967;50.852;4.400;2022-08-24T00:27:37;6.15;;;3.20;;
23578;SDS011;11967;50.852;4.400;2022-08-24T00:30:05;10.05;;;2.90;;
23578;SDS011;11967;50.852;4.400;2022-08-24T00:32:35;5.57;;;3.00;;
23578;SDS011;11967;50.852;4.400;2022-08-24T00:35:02;5.63;;;3.00;;
23578;SDS011;11967;50.852;4.400;2022-08-24T00:37:29;7.70;;;3.30;;
23578;SDS011;11967;50.852;4.400;2022-08-24T00:39:55;6.50;;;3.08;;
23578;SDS011;11967;50.852;4.400;2022-08-24T00:42:21;5.28;;;2.65;;
23578;SDS011;11967;50.852;4.400;2022-08-24T00:44:48;5.07;;;3.08;;
23578;SDS011;11967;50.852;4.400;2022-08-24T00:47:16;5.97;;;3.10;;
23578;SDS011;11967;50.852;4.400;2022-08-24T00:52:35;4.72;;;2.90;;
23578;SDS011;11967;50.852;4.400;2022-08-24T00:55:09;3.78;;;2.65;;
23578;SDS011;11967;50.852;4.400;2022-08-24T00:57:42;5.57;;;2.47;;
23578;SDS011;11967;50.852;4.400;2022-08-24T01:00:15;3.20;;;2.13;;
23578;SDS011;11967;50.852;4.400;2022-08-24T01:02:48;4.97;;;2.70;;
23578;SDS011;11967;50.852;4.400;2022-08-24T01:05:17;5.45;;;2.95;;
23578;SDS011;11967;50.852;4.400;2022-08-24T01:07:43;11.82;;;2.75;;
23578;SDS011;11967;50.852;4.400;2022-08-24T01:10:12;6.82;;;2.65;;
23578;SDS011;11967;50.852;4.400;2022-08-24T01:12:42;3.95;;;2.47;;
23578;SDS011;11967;50.852;4.400;2022-08-24T01:15:10;5.65;;;3.00;;
23578;SDS011;11967;50.852;4.400;2022-08-24T01:17:36;8.18;;;3.00;;
23578;SDS011;11967;50.852;4.400;2022-08-24T01:20:21;8.55;;;3.05;;
23578;SDS011;11967;50.852;4.400;2022-08-24T01:25:31;6.07;;;2.40;;
23578;SDS011;11967;50.852;4.400;2022-08-24T01:27:59;4.78;;;2.50;;
23578;SDS011;11967;50.852;4.400;2022-08-24T01:30:29;5.40;;;2.17;;
23578;SDS011;11967;50.852;4.400;2022-08-24T01:32:56;4.30;;;2.97;;
23578;SDS011;11967;50.852;4.400;2022-08-24T01:35:24;4.38;;;2.35;;
23578;SDS011;11967;50.852;4.400;2022-08-24T01:37:53;4.88;;;2.80;;
23578;SDS011;11967;50.852;4.400;2022-08-24T01:40:20;4.97;;;2.83;;
23578;SDS011;11967;50.852;4.400;2022-08-24T01:42:52;4.20;;;2.75;;
23578;SDS011;11967;50.852;4.400;2022-08-24T01:45:26;5.00;;;2.60;;
23578;SDS011;11967;50.852;4.400;2022-08-24T01:47:52;4.35;;;2.88;;
23578;SDS011;11967;50.852;4.400;2022-08-24T01:50:17;4.20;;;2.70;;
23578;SDS011;11967;50.852;4.400;2022-08-24T01:52:43;5.72;;;2.83;;
23578;SDS011;11967;50.852;4.400;2022-08-24T01:55:10;4.70;;;2.65;;
23578;SDS011;11967;50.852;4.400;2022-08-24T01:57:37;6.90;;;2.95;;
23578;SDS011;11967;50.852;4.400;2022-08-24T02:00:06;4.45;;;2.60;;
23578;SDS011;11967;50.852;4.400;2022-08-24T02:02:35;5.50;;;3.08;;
23578;SDS011;11967;50.852;4.400;2022-08-24T02:05:01;7.13;;;2.63;;
23578;SDS011;11967;50.852;4.400;2022-08-24T02:07:27;2.95;;;2.63;;
23578;SDS011;11967;50.852;4.400;2022-08-24T02:09:56;6.20;;;3.20;;
23578;SDS011;11967;50.852;4.400;2022-08-24T02:12:21;6.60;;;3.67;;
23578;SDS011;11967;50.852;4.400;2022-08-24T02:14:47;9.05;;;3.90;;
23578;SDS011;11967;50.852;4.400;2022-08-24T02:17:12;7.78;;;4.15;;
23578;SDS011;11967;50.852;4.400;2022-08-24T02:19:38;6.65;;;3.95;;
23578;SDS011;11967;50.852;4.400;2022-08-24T02:22:04;9.55;;;3.35;;
23578;SDS011;11967;50.852;4.400;2022-08-24T02:24:30;8.15;;;3.67;;
23578;SDS011;11967;50.852;4.400;2022-08-24T02:26:56;6.93;;;3.53;;
23578;SDS011;11967;50.852;4.400;2022-08-24T02:29:22;5.82;;;3.13;;
23578;SDS011;11967;50.852;4.400;2022-08-24T02:31:49;4.80;;;2.95;;
23578;SDS011;11967;50.852;4.400;2022-08-24T02:34:15;4.78;;;2.80;;
23578;SDS011;11967;50.852;4.400;2022-08-24T02:36:41;5.28;;;2.88;;
23578;SDS011;11967;50.852;4.400;2022-08-24T02:39:07;6.28;;;2.92;;
23578;SDS011;11967;50.852;4.400;2022-08-24T02:41:33;3.97;;;2.92;;
23578;SDS011;11967;50.852;4.400;2022-08-24T02:43:59;7.70;;;3.00;;
23578;SDS011;11967;50.852;4.400;2022-08-24T02:46:27;4.82;;;2.70;;
23578;SDS011;11967;50.852;4.400;2022-08-24T02:48:54;4.30;;;2.53;;
23578;SDS011;11967;50.852;4.400;2022-08-24T02:51:21;6.25;;;2.55;;
23578;SDS011;11967;50.852;4.400;2022-08-24T02:53:52;5.30;;;2.70;;
23578;SDS011;11967;50.852;4.400;2022-08-24T02:56:18;5.40;;;2.70;;
23578;SDS011;11967;50.852;4.400;2022-08-24T02:58:52;4.97;;;2.72;;
23578;SDS011;11967;50.852;4.400;2022-08-24T03:01:18;4.85;;;2.80;;
23578;SDS011;11967;50.852;4.400;2022-08-24T03:03:44;5.03;;;2.92;;
23578;SDS011;11967;50.852;4.400;2022-08-24T03:06:10;4.68;;;3.08;;
23578;SDS011;11967;50.852;4.400;2022-08-24T03:08:36;6.15;;;3.10;;
23578;SDS011;11967;50.852;4.400;2022-08-24T03:11:03;5.38;;;3.53;;
23578;SDS011;11967;50.852;4.400;2022-08-24T03:13:30;6.25;;;4.03;;
23578;SDS011;11967;50.852;4.400;2022-08-24T03:15:57;5.97;;;4.53;;
23578;SDS011;11967;50.852;4.400;2022-08-24T03:18:23;9.25;;;4.95;;
23578;SDS011;11967;50.852;4.400;2022-08-24T03:20:50;10.13;;;5.45;;
23578;SDS011;11967;50.852;4.400;2022-08-24T03:23:17;10.68;;;6.15;;
23578;SDS011;11967;50.852;4.400;2022-08-24T03:25:43;9.05;;;5.90;;
23578;SDS011;11967;50.852;4.400;2022-08-24T03:28:09;9.50;;;6.47;;
23578;SDS011;11967;50.852;4.400;2022-08-24T03:30:36;11.85;;;6.25;;
23578;SDS011;11967;50.852;4.400;2022-08-24T03:33:03;13.13;;;6.43;;
23578;SDS011;11967;50.852;4.400;2022-08-24T03:35:30;6.57;;;5.45;;
23578;SDS011;11967;50.852;4.400;2022-08-24T03:37:56;11.70;;;6.30;;
23578;SDS011;11967;50.852;4.400;2022-08-24T03:40:21;10.32;;;6.28;;
23578;SDS011;11967;50.852;4.400;2022-08-24T03:42:49;10.43;;;6.47;;
23578;SDS011;11967;50.852;4.400;2022-08-24T03:45:15;8.30;;;6.32;;
23578;SDS011;11967;50.852;4.400;2022-08-24T03:47:41;10.57;;;7.30;;
23578;SDS011;11967;50.852;4.400;2022-08-24T03:50:07;11.18;;;7.15;;
23578;SDS011;11967;50.852;4.400;2022-08-24T03:52:33;9.80;;;6.97;;
23578;SDS011;11967;50.852;4.400;2022-08-24T03:54:59;11.68;;;7.65;;
23578;SDS011;11967;50.852;4.400;2022-08-24T03:57:30;16.15;;;6.90;;
23578;SDS011;11967;50.852;4.400;2022-08-24T03:59:55;9.88;;;7.68;;
23578;SDS011;11967;50.852;4.400;2022-08-24T04:02:21;14.43;;;8.02;;
23578;SDS011;11967;50.852;4.400;2022-08-24T04:04:47;12.27;;;8.43;;
23578;SDS011;11967;50.852;4.400;2022-08-24T04:07:13;16.35;;;8.88;;
23578;SDS011;11967;50.852;4.400;2022-08-24T04:09:39;13.55;;;9.05;;
23578;SDS011;11967;50.852;4.400;2022-08-24T04:12:05;14.75;;;9.25;;
23578;SDS011;11967;50.852;4.400;2022-08-24T04:14:30;15.05;;;8.70;;
23578;SDS011;11967;50.852;4.400;2022-08-24T04:16:56;13.90;;;8.80;;
23578;SDS011;11967;50.852;4.400;2022-08-24T04:19:22;11.85;;;8.32;;
23578;SDS011;11967;50.852;4.400;2022-08-24T04:21:47;13.10;;;8.32;;
23578;SDS011;11967;50.852;4.400;2022-08-24T04:24:13;11.80;;;8.00;;
23578;SDS011;11967;50.852;4.400;2022-08-24T04:26:48;12.00;;;8.00;;
23578;SDS011;11967;50.852;4.400;2022-08-24T04:29:14;13.70;;;8.38;;
23578;SDS011;11967;50.852;4.400;2022-08-24T04:31:41;15.52;;;10.10;;
23578;SDS011;11967;50.852;4.400;2022-08-24T04:34:08;12.30;;;9.63;;
23578;SDS011;11967;50.852;4.400;2022-08-24T04:36:35;14.48;;;10.45;;
23578;SDS011;11967;50.852;4.400;2022-08-24T04:39:01;14.93;;;9.77;;
23578;SDS011;11967;50.852;4.400;2022-08-24T04:41:29;13.90;;;9.23;;
23578;SDS011;11967;50.852;4.400;2022-08-24T04:43:56;16.25;;;8.85;;
23578;SDS011;11967;50.852;4.400;2022-08-24T04:46:21;15.48;;;8.90;;
23578;SDS011;11967;50.852;4.400;2022-08-24T04:48:48;14.88;;;8.88;;
23578;SDS011;11967;50.852;4.400;2022-08-24T04:51:14;19.35;;;10.38;;
23578;SDS011;11967;50.852;4.400;2022-08-24T04:53:42;18.52;;;10.82;;
23578;SDS011;11967;50.852;4.400;2022-08-24T04:56:14;20.15;;;10.75;;
23578;SDS011;11967;50.852;4.400;2022-08-24T04:58:47;19.15;;;10.38;;
23578;SDS011;11967;50.852;4.400;2022-08-24T05:01:15;17.08;;;11.73;;
23578;SDS011;11967;50.852;4.400;2022-08-24T05:03:44;16.98;;;10.90;;
23578;SDS011;11967;50.852;4.400;2022-08-24T05:06:14;17.40;;;11.27;;
23578;SDS011;11967;50.852;4.400;2022-08-24T05:08:42;18.20;;;12.23;;
23578;SDS011;11967;50.852;4.400;2022-08-24T05:11:08;20.38;;;13.55;;
23578;SDS011;11967;50.852;4.400;2022-08-24T05:13:34;21.30;;;13.20;;
23578;SDS011;11967;50.852;4.400;2022-08-24T05:16:04;20.27;;;12.70;;
23578;SDS011;11967;50.852;4.400;2022-08-24T05:18:31;20.25;;;13.45;;
23578;SDS011;11967;50.852;4.400;2022-08-24T05:20:58;20.48;;;13.43;;
23578;SDS011;11967;50.852;4.400;2022-08-24T05:23:24;21.80;;;13.55;;
23578;SDS011;11967;50.852;4.400;2022-08-24T05:25:50;20.65;;;14.00;;
23578;SDS011;11967;50.852;4.400;2022-08-24T05:28:16;19.00;;;13.55;;
23578;SDS011;11967;50.852;4.400;2022-08-24T05:30:41;24.20;;;14.48;;
23578;SDS011;11967;50.852;4.400;2022-08-24T05:33:07;17.98;;;12.18;;
23578;SDS011;11967;50.852;4.400;2022-08-24T05:35:39;19.65;;;12.85;;
23578;SDS011;11967;50.852;4.400;2022-08-24T05:38:05;24.70;;;13.23;;
23578;SDS011;11967;50.852;4.400;2022-08-24T05:40:30;19.73;;;12.63;;
23578;SDS011;11967;50.852;4.400;2022-08-24T05:42:56;20.98;;;12.75;;
23578;SDS011;11967;50.852;4.400;2022-08-24T05:45:22;18.30;;;13.18;;
23578;SDS011;11967;50.852;4.400;2022-08-24T05:47:47;18.85;;;13.30;;
23578;SDS011;11967;50.852;4.400;2022-08-24T05:50:13;19.75;;;13.18;;
23578;SDS011;11967;50.852;4.400;2022-08-24T05:52:40;23.85;;;15.52;;
23578;SDS011;11967;50.852;4.400;2022-08-24T05:55:06;26.52;;;15.82;;
23578;SDS011;11967;50.852;4.400;2022-08-24T05:57:33;28.90;;;16.90;;
23578;SDS011;11967;50.852;4.400;2022-08-24T05:59:59;28.38;;;17.38;;
23578;SDS011;11967;50.852;4.400;2022-08-24T06:02:25;27.15;;;18.15;;
23578;SDS011;11967;50.852;4.400;2022-08-24T06:04:51;29.35;;;18.05;;
23578;SDS011;11967;50.852;4.400;2022-08-24T06:07:17;28.02;;;18.77;;
23578;SDS011;11967;50.852;4.400;2022-08-24T06:09:43;25.85;;;17.52;;
23578;SDS011;11967;50.852;4.400;2022-08-24T06:12:10;24.38;;;18.83;;
23578;SDS011;11967;50.852;4.400;2022-08-24T06:14:38;29.10;;;19.23;;
23578;SDS011;11967;50.852;4.400;2022-08-24T06:17:05;29.25;;;20.52;;
23578;SDS011;11967;50.852;4.400;2022-08-24T06:19:33;37.63;;;19.50;;
23578;SDS011;11967;50.852;4.400;2022-08-24T06:21:59;30.08;;;19.45;;
23578;SDS011;11967;50.852;4.400;2022-08-24T06:24:25;28.02;;;18.98;;
23578;SDS011;11967;50.852;4.400;2022-08-24T06:27:11;29.17;;;20.75;;
23578;SDS011;11967;50.852;4.400;2022-08-24T06:29:48;29.80;;;20.60;;
23578;SDS011;11967;50.852;4.400;2022-08-24T06:32:16;27.92;;;19.23;;
23578;SDS011;11967;50.852;4.400;2022-08-24T06:34:42;27.27;;;18.02;;
23578;SDS011;11967;50.852;4.400;2022-08-24T06:37:08;35.00;;;19.17;;
23578;SDS011;11967;50.852;4.400;2022-08-24T06:39:34;28.40;;;19.02;;
23578;SDS011;11967;50.852;4.400;2022-08-24T06:42:00;28.63;;;18.63;;
23578;SDS011;11967;50.852;4.400;2022-08-24T06:44:25;26.95;;;18.38;;
23578;SDS011;11967;50.852;4.400;2022-08-24T06:46:51;34.33;;;19.13;;
23578;SDS011;11967;50.852;4.400;2022-08-24T06:49:17;29.10;;;18.17;;
23578;SDS011;11967;50.852;4.400;2022-08-24T06:51:43;31.60;;;18.08;;
23578;SDS011;11967;50.852;4.400;2022-08-24T06:54:09;28.20;;;17.35;;
23578;SDS011;11967;50.852;4.400;2022-08-24T06:56:35;32.38;;;17.50;;
23578;SDS011;11967;50.852;4.400;2022-08-24T06:59:04;24.40;;;16.75;;
23578;SDS011;11967;50.852;4.400;2022-08-24T07:01:30;27.08;;;16.67;;
23578;SDS011;11967;50.852;4.400;2022-08-24T07:03:56;25.80;;;16.02;;
23578;SDS011;11967;50.852;4.400;2022-08-24T07:06:22;31.52;;;18.33;;
23578;SDS011;11967;50.852;4.400;2022-08-24T07:08:49;25.83;;;16.15;;
23578;SDS011;11967;50.852;4.400;2022-08-24T07:11:16;24.05;;;15.15;;
23578;SDS011;11967;50.852;4.400;2022-08-24T07:13:46;22.77;;;15.90;;
23578;SDS011;11967;50.852;4.400;2022-08-24T07:16:14;28.02;;;14.95;;
23578;SDS011;11967;50.852;4.400;2022-08-24T07:18:41;23.17;;;15.32;;
23578;SDS011;11967;50.852;4.400;2022-08-24T07:21:08;24.75;;;16.27;;
23578;SDS011;11967;50.852;4.400;2022-08-24T07:23:34;25.40;;;16.02;;
23578;SDS011;11967;50.852;4.400;2022-08-24T07:26:08;32.15;;;15.93;;
23578;SDS011;11967;50.852;4.400;2022-08-24T07:28:38;26.50;;;15.60;;
23578;SDS011;11967;50.852;4.400;2022-08-24T07:31:04;24.17;;;15.23;;
23578;SDS011;11967;50.852;4.400;2022-08-24T07:33:31;21.75;;;14.73;;
23578;SDS011;11967;50.852;4.400;2022-08-24T07:35:58;23.60;;;14.40;;
23578;SDS011;11967;50.852;4.400;2022-08-24T07:38:24;20.98;;;13.55;;
23578;SDS011;11967;50.852;4.400;2022-08-24T07:40:50;19.48;;;12.60;;
23578;SDS011;11967;50.852;4.400;2022-08-24T07:43:16;21.90;;;12.27;;
23578;SDS011;11967;50.852;4.400;2022-08-24T07:45:44;16.80;;;11.90;;
23578;SDS011;11967;50.852;4.400;2022-08-24T07:48:12;20.77;;;10.93;;
23578;SDS011;11967;50.852;4.400;2022-08-24T07:50:38;19.67;;;12.00;;
23578;SDS011;11967;50.852;4.400;2022-08-24T07:53:03;19.65;;;11.90;;
23578;SDS011;11967;50.852;4.400;2022-08-24T07:55:29;22.05;;;11.93;;
23578;SDS011;11967;50.852;4.400;2022-08-24T07:57:54;17.13;;;10.68;;
23578;SDS011;11967;50.852;4.400;2022-08-24T08:00:20;14.20;;;9.98;;
23578;SDS011;11967;50.852;4.400;2022-08-24T08:02:46;21.45;;;10.95;;
23578;SDS011;11967;50.852;4.400;2022-08-24T08:05:13;17.25;;;10.93;;
23578;SDS011;11967;50.852;4.400;2022-08-24T08:07:41;20.58;;;11.27;;
23578;SDS011;11967;50.852;4.400;2022-08-24T08:10:07;19.85;;;10.63;;
23578;SDS011;11967;50.852;4.400;2022-08-24T08:12:34;14.75;;;9.57;;
23578;SDS011;11967;50.852;4.400;2022-08-24T08:15:00;19.15;;;9.63;;
23578;SDS011;11967;50.852;4.400;2022-08-24T08:17:26;14.73;;;9.75;;
23578;SDS011;11967;50.852;4.400;2022-08-24T08:19:52;16.27;;;9.98;;
23578;SDS011;11967;50.852;4.400;2022-08-24T08:22:17;13.48;;;8.90;;
23578;SDS011;11967;50.852;4.400;2022-08-24T08:25:02;12.63;;;8.50;;
23578;SDS011;11967;50.852;4.400;2022-08-24T08:27:31;16.20;;;8.10;;
23578;SDS011;11967;50.852;4.400;2022-08-24T08:29:58;16.40;;;10.52;;
23578;SDS011;11967;50.852;4.400;2022-08-24T08:32:24;13.23;;;8.90;;
23578;SDS011;11967;50.852;4.400;2022-08-24T08:34:49;15.43;;;9.13;;
23578;SDS011;11967;50.852;4.400;2022-08-24T08:37:15;14.20;;;8.13;;
23578;SDS011;11967;50.852;4.400;2022-08-24T08:39:41;12.05;;;7.78;;
23578;SDS011;11967;50.852;4.400;2022-08-24T08:42:12;14.43;;;8.02;;
23578;SDS011;11967;50.852;4.400;2022-08-24T08:50:32;16.05;;;7.45;;
23578;SDS011;11967;50.852;4.400;2022-08-24T08:55:57;13.27;;;6.90;;
23578;SDS011;11967;50.852;4.400;2022-08-24T09:17:56;11.25;;;7.20;;
23578;SDS011;11967;50.852;4.400;2022-08-24T09:25:58;17.98;;;9.52;;
23578;SDS011;11967;50.852;4.400;2022-08-24T09:28:31;15.10;;;8.73;;
23578;SDS011;11967;50.852;4.400;2022-08-24T09:40:15;15.20;;;7.18;;
23578;SDS011;11967;50.852;4.400;2022-08-24T09:42:55;9.38;;;6.45;;
23578;SDS011;11967;50.852;4.400;2022-08-24T09:45:47;13.95;;;5.68;;
23578;SDS011;11967;50.852;4.400;2022-08-24T09:58:52;13.88;;;3.65;;
23578;SDS011;11967;50.852;4.400;2022-08-24T10:08:18;8.30;;;3.40;;
23578;SDS011;11967;50.852;4.400;2022-08-24T10:14:15;4.85;;;2.35;;
23578;SDS011;11967;50.852;4.400;2022-08-24T10:17:08;10.65;;;3.28;;
23578;SDS011;11967;50.852;4.400;2022-08-24T10:22:46;6.05;;;2.85;;
23578;SDS011;11967;50.852;4.400;2022-08-24T10:33:29;4.10;;;2.30;;
23578;SDS011;11967;50.852;4.400;2022-08-24T10:36:06;4.55;;;2.45;;
23578;SDS011;11967;50.852;4.400;2022-08-24T10:39:25;3.75;;;2.17;;
23578;SDS011;11967;50.852;4.400;2022-08-24T10:42:13;4.80;;;2.33;;
23578;SDS011;11967;50.852;4.400;2022-08-24T10:47:37;4.25;;;1.88;;
23578;SDS011;11967;50.852;4.400;2022-08-24T10:55:50;2.05;;;1.70;;
23578;SDS011;11967;50.852;4.400;2022-08-24T10:58:57;6.60;;;1.70;;
23578;SDS011;11967;50.852;4.400;2022-08-24T11:01:34;4.00;;;1.52;;
23578;SDS011;11967;50.852;4.400;2022-08-24T11:07:02;5.28;;;2.05;;
23578;SDS011;11967;50.852;4.400;2022-08-24T11:09:47;4.68;;;1.77;;
23578;SDS011;11967;50.852;4.400;2022-08-24T11:12:39;3.17;;;1.80;;
23578;SDS011;11967;50.852;4.400;2022-08-24T11:17:52;4.40;;;1.48;;
23578;SDS011;11967;50.852;4.400;2022-08-24T11:20:33;7.82;;;1.20;;
23578;SDS011;11967;50.852;4.400;2022-08-24T11:23:23;6.00;;;1.33;;
23578;SDS011;11967;50.852;4.400;2022-08-24T11:25:52;8.02;;;1.60;;
23578;SDS011;11967;50.852;4.400;2022-08-24T11:28:49;2.88;;;1.42;;
23578;SDS011;11967;50.852;4.400;2022-08-24T11:31:27;3.42;;;1.48;;
23578;SDS011;11967;50.852;4.400;2022-08-24T11:33:59;5.95;;;1.60;;
23578;SDS011;11967;50.852;4.400;2022-08-24T11:36:34;3.55;;;1.30;;
23578;SDS011;11967;50.852;4.400;2022-08-24T11:41:52;6.35;;;1.75;;
23578;SDS011;11967;50.852;4.400;2022-08-24T11:49:42;3.13;;;1.60;;
23578;SDS011;11967;50.852;4.400;2022-08-24T11:57:53;2.95;;;1.38;;
23578;SDS011;11967;50.852;4.400;2022-08-24T12:00:37;3.90;;;1.65;;
23578;SDS011;11967;50.852;4.400;2022-08-24T12:11:36;5.63;;;1.60;;
23578;SDS011;11967;50.852;4.400;2022-08-24T12:17:08;4.55;;;1.38;;
23578;SDS011;11967;50.852;4.400;2022-08-24T12:20:23;5.43;;;1.60;;
23578;SDS011;11967;50.852;4.400;2022-08-24T12:22:55;4.78;;;1.65;;
23578;SDS011;11967;50.852;4.400;2022-08-24T12:25:26;7.10;;;2.45;;
23578;SDS011;11967;50.852;4.400;2022-08-24T12:28:15;4.38;;;1.67;;
23578;SDS011;11967;50.852;4.400;2022-08-24T12:30:50;3.30;;;1.40;;
23578;SDS011;11967;50.852;4.400;2022-08-24T12:33:18;2.90;;;1.30;;
23578;SDS011;11967;50.852;4.400;2022-08-24T12:35:52;3.17;;;1.40;;
23578;SDS011;11967;50.852;4.400;2022-08-24T12:41:14;4.60;;;1.70;;
23578;SDS011;11967;50.852;4.400;2022-08-24T12:43:51;3.27;;;1.40;;
23578;SDS011;11967;50.852;4.400;2022-08-24T12:46:20;3.58;;;1.10;;
23578;SDS011;11967;50.852;4.400;2022-08-24T12:49:13;4.95;;;1.45;;
23578;SDS011;11967;50.852;4.400;2022-08-24T12:57:32;3.13;;;1.20;;
23578;SDS011;11967;50.852;4.400;2022-08-24T13:00:20;4.63;;;1.48;;
23578;SDS011;11967;50.852;4.400;2022-08-24T13:03:01;2.90;;;1.20;;
23578;SDS011;11967;50.852;4.400;2022-08-24T13:05:40;2.08;;;1.58;;
23578;SDS011;11967;50.852;4.400;2022-08-24T13:10:51;5.43;;;1.83;;
23578;SDS011;11967;50.852;4.400;2022-08-24T13:13:38;5.13;;;1.70;;
23578;SDS011;11967;50.852;4.400;2022-08-24T13:16:07;7.32;;;1.50;;
23578;SDS011;11967;50.852;4.400;2022-08-24T13:18:48;3.50;;;1.40;;
23578;SDS011;11967;50.852;4.400;2022-08-24T13:21:40;4.90;;;1.33;;
23578;SDS011;11967;50.852;4.400;2022-08-24T13:29:41;3.47;;;1.58;;
23578;SDS011;11967;50.852;4.400;2022-08-24T13:32:14;4.18;;;1.30;;
23578;SDS011;11967;50.852;4.400;2022-08-24T13:34:45;4.22;;;1.48;;
23578;SDS011;11967;50.852;4.400;2022-08-24T13:37:14;3.97;;;1.50;;
23578;SDS011;11967;50.852;4.400;2022-08-24T13:48:09;3.35;;;1.45;;
23578;SDS011;11967;50.852;4.400;2022-08-24T13:59:37;3.90;;;1.52;;
23578;SDS011;11967;50.852;4.400;2022-08-24T14:07:33;3.90;;;2.10;;
23578;SDS011;11967;50.852;4.400;2022-08-24T14:21:31;5.88;;;2.13;;
23578;SDS011;11967;50.852;4.400;2022-08-24T14:24:08;8.52;;;2.25;;
23578;SDS011;11967;50.852;4.400;2022-08-24T14:26:53;7.43;;;1.50;;
23578;SDS011;11967;50.852;4.400;2022-08-24T14:29:33;5.43;;;1.83;;
23578;SDS011;11967;50.852;4.400;2022-08-24T14:34:56;3.40;;;1.90;;
23578;SDS011;11967;50.852;4.400;2022-08-24T14:40:14;6.20;;;2.45;;
23578;SDS011;11967;50.852;4.400;2022-08-24T14:45:21;7.18;;;2.50;;
23578;SDS011;11967;50.852;4.400;2022-08-24T15:13:09;6.97;;;2.05;;
23578;SDS011;11967;50.852;4.400;2022-08-24T15:18:21;6.80;;;2.10;;
23578;SDS011;11967;50.852;4.400;2022-08-24T15:29:23;6.43;;;2.50;;
23578;SDS011;11967;50.852;4.400;2022-08-24T15:31:57;8.90;;;2.30;;
23578;SDS011;11967;50.852;4.400;2022-08-24T15:37:03;6.50;;;1.67;;
23578;SDS011;11967;50.852;4.400;2022-08-24T15:39:30;4.25;;;1.80;;
23578;SDS011;11967;50.852;4.400;2022-08-24T15:41:56;7.20;;;2.22;;
23578;SDS011;11967;50.852;4.400;2022-08-24T15:44:23;4.47;;;2.30;;
23578;SDS011;11967;50.852;4.400;2022-08-24T15:46:53;4.85;;;2.30;;
23578;SDS011;11967;50.852;4.400;2022-08-24T15:49:21;4.47;;;2.40;;
23578;SDS011;11967;50.852;4.400;2022-08-24T15:51:54;3.42;;;2.33;;
23578;SDS011;11967;50.852;4.400;2022-08-24T15:56:56;6.25;;;2.45;;
23578;SDS011;11967;50.852;4.400;2022-08-24T15:59:52;6.47;;;2.70;;
23578;SDS011;11967;50.852;4.400;2022-08-24T16:15:44;5.75;;;1.92;;
23578;SDS011;11967;50.852;4.400;2022-08-24T16:18:11;4.47;;;1.90;;
23578;SDS011;11967;50.852;4.400;2022-08-24T16:20:38;6.13;;;1.80;;
23578;SDS011;11967;50.852;4.400;2022-08-24T16:23:10;6.63;;;2.63;;
23578;SDS011;11967;50.852;4.400;2022-08-24T16:25:41;5.88;;;2.50;;
23578;SDS011;11967;50.852;4.400;2022-08-24T16:28:10;3.70;;;1.88;;
23578;SDS011;11967;50.852;4.400;2022-08-24T16:36:20;6.35;;;1.83;;
23578;SDS011;11967;50.852;4.400;2022-08-24T16:38:46;6.07;;;1.90;;
23578;SDS011;11967;50.852;4.400;2022-08-24T16:41:18;5.78;;;1.88;;
23578;SDS011;11967;50.852;4.400;2022-08-24T16:43:46;5.75;;;2.15;;
23578;SDS011;11967;50.852;4.400;2022-08-24T16:46:16;4.53;;;1.85;;
23578;SDS011;11967;50.852;4.400;2022-08-24T16:48:44;5.53;;;2.20;;
23578;SDS011;11967;50.852;4.400;2022-08-24T16:51:09;7.63;;;2.20;;
23578;SDS011;11967;50.852;4.400;2022-08-24T16:53:35;12.35;;;2.17;;
23578;SDS011;11967;50.852;4.400;2022-08-24T16:56:00;6.32;;;2.20;;
23578;SDS011;11967;50.852;4.400;2022-08-24T16:58:32;8.38;;;2.40;;
23578;SDS011;11967;50.852;4.400;2022-08-24T17:00:58;7.38;;;2.58;;
23578;SDS011;11967;50.852;4.400;2022-08-24T17:03:24;5.82;;;2.80;;
23578;SDS011;11967;50.852;4.400;2022-08-24T17:05:50;4.45;;;2.47;;
23578;SDS011;11967;50.852;4.400;2022-08-24T17:08:16;5.30;;;2.10;;
23578;SDS011;11967;50.852;4.400;2022-08-24T17:10:41;6.78;;;2.10;;
23578;SDS011;11967;50.852;4.400;2022-08-24T17:13:07;7.20;;;1.75;;
23578;SDS011;11967;50.852;4.400;2022-08-24T17:15:34;5.00;;;1.67;;
23578;SDS011;11967;50.852;4.400;2022-08-24T17:18:02;5.97;;;2.20;;
23578;SDS011;11967;50.852;4.400;2022-08-24T17:20:30;3.67;;;1.77;;
23578;SDS011;11967;50.852;4.400;2022-08-24T17:22:56;5.53;;;1.95;;
23578;SDS011;11967;50.852;4.400;2022-08-24T17:25:22;9.35;;;2.35;;
23578;SDS011;11967;50.852;4.400;2022-08-24T17:27:49;7.00;;;2.10;;
23578;SDS011;11967;50.852;4.400;2022-08-24T17:30:19;5.70;;;2.20;;
23578;SDS011;11967;50.852;4.400;2022-08-24T17:32:48;6.13;;;2.40;;
23578;SDS011;11967;50.852;4.400;2022-08-24T17:35:16;6.00;;;2.28;;
23578;SDS011;11967;50.852;4.400;2022-08-24T17:37:44;4.40;;;2.13;;
23578;SDS011;11967;50.852;4.400;2022-08-24T17:40:11;6.00;;;2.03;;
23578;SDS011;11967;50.852;4.400;2022-08-24T17:42:43;5.50;;;2.22;;
23578;SDS011;11967;50.852;4.400;2022-08-24T17:45:09;4.50;;;2.20;;
23578;SDS011;11967;50.852;4.400;2022-08-24T17:47:36;6.30;;;2.20;;
23578;SDS011;11967;50.852;4.400;2022-08-24T17:50:03;9.25;;;2.47;;
23578;SDS011;11967;50.852;4.400;2022-08-24T17:52:29;4.30;;;2.30;;
23578;SDS011;11967;50.852;4.400;2022-08-24T17:54:55;4.47;;;2.30;;
23578;SDS011;11967;50.852;4.400;2022-08-24T17:57:21;7.00;;;2.50;;
23578;SDS011;11967;50.852;4.400;2022-08-24T17:59:50;5.03;;;2.30;;
23578;SDS011;11967;50.852;4.400;2022-08-24T18:02:19;7.78;;;2.72;;
23578;SDS011;11967;50.852;4.400;2022-08-24T18:04:45;8.88;;;2.75;;
23578;SDS011;11967;50.852;4.400;2022-08-24T18:07:15;8.40;;;2.60;;
23578;SDS011;11967;50.852;4.400;2022-08-24T18:12:14;7.82;;;2.75;;
23578;SDS011;11967;50.852;4.400;2022-08-24T18:14:41;5.85;;;2.63;;
23578;SDS011;11967;50.852;4.400;2022-08-24T18:17:09;5.45;;;2.80;;
23578;SDS011;11967;50.852;4.400;2022-08-24T18:19:38;8.00;;;2.60;;
23578;SDS011;11967;50.852;4.400;2022-08-24T18:22:04;5.35;;;2.60;;
23578;SDS011;11967;50.852;4.400;2022-08-24T18:24:31;4.40;;;2.45;;
23578;SDS011;11967;50.852;4.400;2022-08-24T18:26:58;4.80;;;2.80;;
23578;SDS011;11967;50.852;4.400;2022-08-24T18:29:25;7.90;;;3.15;;
23578;SDS011;11967;50.852;4.400;2022-08-24T18:31:53;11.75;;;2.92;;
23578;SDS011;11967;50.852;4.400;2022-08-24T18:34:21;6.13;;;2.90;;
23578;SDS011;11967;50.852;4.400;2022-08-24T18:36:48;6.80;;;2.80;;
23578;SDS011;11967;50.852;4.400;2022-08-24T18:39:17;4.78;;;2.53;;
23578;SDS011;11967;50.852;4.400;2022-08-24T18:41:44;7.25;;;2.70;;
23578;SDS011;11967;50.852;4.400;2022-08-24T18:44:12;6.53;;;2.70;;
23578;SDS011;11967;50.852;4.400;2022-08-24T18:46:42;6.50;;;2.53;;
23578;SDS011;11967;50.852;4.400;2022-08-24T18:49:07;8.38;;;2.75;;
23578;SDS011;11967;50.852;4.400;2022-08-24T18:51:33;4.38;;;2.78;;
23578;SDS011;11967;50.852;4.400;2022-08-24T18:54:05;4.15;;;2.60;;
23578;SDS011;11967;50.852;4.400;2022-08-24T18:56:34;7.53;;;2.60;;